createdAt,value
2018-04-18T00:02:10.927Z,37.70
2018-04-18T00:05:13.385Z,33.90
2018-04-18T00:08:16.606Z,35.37
2018-04-18T00:11:19.052Z,33.37
2018-04-18T00:14:22.275Z,37.53
2018-04-18T00:17:24.723Z,35.57
2018-04-18T00:20:27.177Z,36.43
2018-04-18T00:23:29.638Z,35.87
2018-04-18T00:26:32.094Z,38.20
2018-04-18T00:29:34.553Z,32.63
2018-04-18T00:32:37.001Z,38.23
2018-04-18T00:35:40.221Z,37.93
2018-04-18T00:38:42.678Z,36.10
2018-04-18T00:41:45.126Z,37.33
2018-04-18T00:44:48.351Z,37.57
2018-04-18T00:47:51.566Z,39.37
2018-04-18T00:50:54.025Z,39.10
2018-04-18T00:53:56.483Z,36.07
2018-04-18T00:56:58.937Z,40.90
2018-04-18T01:00:01.394Z,41.53
2018-04-18T01:03:03.845Z,40.10
2018-04-18T01:06:06.303Z,38.27
2018-04-18T01:09:08.753Z,37.73
2018-04-18T01:12:11.205Z,42.80
2018-04-18T01:15:13.663Z,38.43
2018-04-18T01:18:16.117Z,39.27
2018-04-18T01:21:18.578Z,41.40
2018-04-18T01:24:21.797Z,43.17
2018-04-18T01:27:24.246Z,42.23
2018-04-18T01:30:27.465Z,41.03
2018-04-18T01:33:29.924Z,37.77
2018-04-18T01:36:32.370Z,44.73
2018-04-18T01:39:34.822Z,43.07
2018-04-18T01:42:37.273Z,42.80
2018-04-18T01:45:39.731Z,42.13
2018-04-18T01:48:42.951Z,43.47
2018-04-18T01:51:45.406Z,41.77
2018-04-18T01:54:47.865Z,43.47
2018-04-18T01:57:50.318Z,45.60
2018-04-18T02:00:52.774Z,41.87
2018-04-18T02:03:55.290Z,39.70
2018-04-18T02:06:57.744Z,40.27
2018-04-18T02:10:00.202Z,41.47
2018-04-18T02:13:02.655Z,41.33
2018-04-18T02:16:05.110Z,44.67
2018-04-18T02:19:08.338Z,43.00
2018-04-18T02:22:10.790Z,40.87
2018-04-18T02:25:14.013Z,40.17
2018-04-18T02:28:16.471Z,38.50
2018-04-18T02:31:18.922Z,39.20
2018-04-18T02:34:22.145Z,41.37
2018-04-18T02:37:24.593Z,40.60
2018-04-18T02:40:27.818Z,38.23
2018-04-18T02:43:30.266Z,40.63
2018-04-18T02:46:33.494Z,40.67
2018-04-18T02:49:35.959Z,37.73
2018-04-18T02:52:38.403Z,42.63
2018-04-18T02:55:40.867Z,37.90
2018-04-18T02:58:43.313Z,36.97
2018-04-18T03:01:45.773Z,36.83
2018-04-18T03:04:48.227Z,37.37
2018-04-18T03:07:50.682Z,38.13
2018-04-18T03:10:53.138Z,36.57
2018-04-18T03:13:55.586Z,39.93
2018-04-18T03:16:58.050Z,37.73
2018-04-18T03:20:00.509Z,39.43
2018-04-18T03:23:02.959Z,41.30
2018-04-18T03:26:05.417Z,41.70
2018-04-18T03:29:07.866Z,38.97
2018-04-18T03:32:10.331Z,45.53
2018-04-18T03:35:12.790Z,41.80
2018-04-18T03:38:15.999Z,37.47
2018-04-18T03:41:18.462Z,38.37
2018-04-18T03:44:21.690Z,32.10
2018-04-18T03:47:24.160Z,35.43
2018-04-18T03:50:26.614Z,39.03
2018-04-18T03:53:29.834Z,38.27
2018-04-18T03:56:32.493Z,38.70
2018-04-18T03:59:34.957Z,36.03
2018-04-18T04:02:38.172Z,38.17
2018-04-18T04:05:40.633Z,44.87
2018-04-18T04:08:43.849Z,36.03
2018-04-18T04:11:46.319Z,38.80
2018-04-18T04:14:48.769Z,40.97
2018-04-18T04:18:04.022Z,41.43
2018-04-18T04:21:18.393Z,38.83
2018-04-18T04:24:32.837Z,36.93
2018-04-18T04:27:36.114Z,39.53
2018-04-18T04:30:38.566Z,36.30
2018-04-18T04:33:41.017Z,43.97
2018-04-18T04:36:44.242Z,37.83
2018-04-18T04:39:46.694Z,34.27
2018-04-18T04:42:49.922Z,37.90
2018-04-18T04:45:52.378Z,38.57
2018-04-18T04:48:54.825Z,39.43
2018-04-18T04:51:57.277Z,36.23
2018-04-18T04:54:59.738Z,38.10
2018-04-18T04:58:02.199Z,37.00
2018-04-18T05:01:04.666Z,38.83
2018-04-18T05:04:07.117Z,35.83
2018-04-18T05:07:10.337Z,34.03
2018-04-18T05:10:12.791Z,32.53
2018-04-18T05:13:16.018Z,31.17
2018-04-18T05:16:18.474Z,29.57
2018-04-18T05:19:20.929Z,33.93
2018-04-18T05:22:23.385Z,31.83
2018-04-18T05:25:25.838Z,31.20
2018-04-18T05:28:28.307Z,31.77
2018-04-18T05:31:30.758Z,33.60
2018-04-18T05:34:33.205Z,32.93
2018-04-18T05:37:35.666Z,33.87
2018-04-18T05:40:38.123Z,29.27
2018-04-18T05:43:40.579Z,24.13
2018-04-18T05:46:43.034Z,21.73
2018-04-18T05:49:46.250Z,19.37
2018-04-18T05:52:48.712Z,20.20
2018-04-18T05:55:51.171Z,22.83
2018-04-18T05:58:54.386Z,22.43
2018-04-18T06:01:56.852Z,19.47
2018-04-18T06:05:00.061Z,19.57
2018-04-18T06:08:02.523Z,21.00
2018-04-18T06:11:04.978Z,20.37
2018-04-18T06:14:08.193Z,17.90
2018-04-18T06:17:11.413Z,18.17
2018-04-18T06:20:13.866Z,18.03
2018-04-18T06:23:16.329Z,19.97
2018-04-18T06:26:19.552Z,23.30
2018-04-18T06:29:22.098Z,35.03
2018-04-18T06:32:24.554Z,22.43
2018-04-18T06:35:27.009Z,34.10
2018-04-18T06:38:29.462Z,19.70
2018-04-18T06:41:31.920Z,20.30
2018-04-18T06:44:35.142Z,20.00
2018-04-18T06:47:37.602Z,19.30
2018-04-18T06:50:40.149Z,17.03
2018-04-18T06:53:53.258Z,19.57
2018-04-18T06:56:55.722Z,18.43
2018-04-18T06:59:58.229Z,18.42
2018-04-18T07:03:00.647Z,19.05
2018-04-18T07:06:03.102Z,17.65
2018-04-18T07:09:06.322Z,16.12
2018-04-18T07:12:08.792Z,16.70
2018-04-18T07:15:11.243Z,16.73
2018-04-18T07:18:14.470Z,18.65
2018-04-18T07:21:16.937Z,16.80
2018-04-18T07:24:19.390Z,16.17
2018-04-18T07:27:22.641Z,24.37
2018-04-18T07:30:25.098Z,19.45
2018-04-18T07:33:27.562Z,15.98
2018-04-18T07:36:30.018Z,16.33
2018-04-18T07:39:32.470Z,16.08
2018-04-18T07:42:34.926Z,13.77
2018-04-18T07:45:37.373Z,14.73
2018-04-18T07:48:39.833Z,13.68
2018-04-18T07:51:43.053Z,17.17
2018-04-18T07:54:45.510Z,14.40
2018-04-18T07:57:47.961Z,13.50
2018-04-18T08:00:51.186Z,14.30
2018-04-18T08:03:53.659Z,15.00
2018-04-18T08:06:56.868Z,12.65
2018-04-18T08:09:59.319Z,12.98
2018-04-18T08:13:02.548Z,12.43
2018-04-18T08:16:04.998Z,14.98
2018-04-18T08:19:07.454Z,15.32
2018-04-18T08:22:10.682Z,15.15
2018-04-18T08:25:13.131Z,13.75
2018-04-18T08:28:16.353Z,14.05
2018-04-18T08:31:18.803Z,14.32
2018-04-18T08:34:22.031Z,13.65
2018-04-18T08:37:24.491Z,13.27
2018-04-18T08:40:26.938Z,14.27
2018-04-18T08:43:29.394Z,12.50
2018-04-18T08:46:31.855Z,13.43
2018-04-18T08:49:34.313Z,13.40
2018-04-18T08:52:36.769Z,13.10
2018-04-18T08:55:39.216Z,17.60
2018-04-18T08:58:41.678Z,13.03
2018-04-18T09:01:44.142Z,13.40
2018-04-18T09:04:46.593Z,15.77
2018-04-18T09:07:49.061Z,13.87
2018-04-18T09:10:52.256Z,16.00
2018-04-18T09:13:55.254Z,15.47
2018-04-18T09:16:57.717Z,13.47
2018-04-18T09:20:00.164Z,13.77
2018-04-18T09:23:03.394Z,13.97
2018-04-18T09:26:05.834Z,12.87
2018-04-18T09:29:08.290Z,15.63
2018-04-18T09:32:10.750Z,17.03
2018-04-18T09:35:13.201Z,15.70
2018-04-18T09:38:15.662Z,17.93
2018-04-18T09:41:18.114Z,15.20
2018-04-18T09:44:21.340Z,15.23
2018-04-18T09:47:23.801Z,12.93
2018-04-18T09:50:27.014Z,13.27
2018-04-18T09:53:29.479Z,11.90
2018-04-18T09:56:32.694Z,11.90
2018-04-18T09:59:35.154Z,12.23
2018-04-18T10:02:37.610Z,11.60
2018-04-18T10:05:40.826Z,11.93
2018-04-18T10:08:43.278Z,13.07
2018-04-18T10:11:45.729Z,11.50
2018-04-18T10:14:48.181Z,12.47
2018-04-18T10:17:50.638Z,13.30
2018-04-18T10:20:53.099Z,15.27
2018-04-18T10:23:56.224Z,11.87
2018-04-18T10:26:58.680Z,15.83
2018-04-18T10:30:01.139Z,12.77
2018-04-18T10:33:04.365Z,13.17
2018-04-18T10:36:06.818Z,10.93
2018-04-18T10:39:09.269Z,12.93
2018-04-18T10:42:11.729Z,14.13
2018-04-18T10:45:14.174Z,12.33
2018-04-18T10:48:16.634Z,12.33
2018-04-18T10:51:19.080Z,11.33
2018-04-18T10:54:21.533Z,11.73
2018-04-18T10:57:23.978Z,9.87
2018-04-18T11:00:26.435Z,16.13
2018-04-18T11:03:28.890Z,11.53
2018-04-18T11:06:31.342Z,16.67
2018-04-18T11:09:33.798Z,17.00
2018-04-18T11:12:36.257Z,14.80
2018-04-18T11:15:44.390Z,18.43
2018-04-18T11:18:46.845Z,18.13
2018-04-18T11:21:49.293Z,15.43
2018-04-18T11:24:52.523Z,15.37
2018-04-18T11:27:55.009Z,13.50
2018-04-18T11:30:57.457Z,17.40
2018-04-18T11:33:59.922Z,16.33
2018-04-18T11:37:03.146Z,12.83
2018-04-18T11:40:05.610Z,14.00
2018-04-18T11:43:08.073Z,15.03
2018-04-18T11:46:11.290Z,15.33
2018-04-18T11:49:13.760Z,15.17
2018-04-18T11:52:16.200Z,12.60
2018-04-18T11:55:18.653Z,11.03
2018-04-18T11:58:21.106Z,12.37
2018-04-18T12:01:23.558Z,14.23
2018-04-18T12:04:26.013Z,12.50
2018-04-18T12:07:29.230Z,13.40
2018-04-18T12:10:31.699Z,13.80
2018-04-18T12:13:34.922Z,13.23
2018-04-18T12:16:37.381Z,15.63
2018-04-18T12:19:39.833Z,12.10
2018-04-18T12:22:43.061Z,10.57
2018-04-18T12:25:45.497Z,15.40
2018-04-18T12:28:48.722Z,11.80
2018-04-18T12:31:51.169Z,13.97
2018-04-18T12:34:54.381Z,11.83
2018-04-18T12:37:56.842Z,11.27
2018-04-18T12:41:00.053Z,12.20
2018-04-18T12:44:02.521Z,16.60
2018-04-18T12:47:05.731Z,12.30
2018-04-18T12:50:08.185Z,14.20
2018-04-18T12:53:11.406Z,13.07
2018-04-18T12:56:13.855Z,14.30
2018-04-18T12:59:16.310Z,15.67
2018-04-18T13:02:18.761Z,15.03
2018-04-18T13:05:21.217Z,15.27
2018-04-18T13:08:23.673Z,13.27
2018-04-18T13:11:26.890Z,11.90
2018-04-18T13:14:29.343Z,14.00
2018-04-18T13:17:32.553Z,13.97
2018-04-18T13:20:35.003Z,12.53
2018-04-18T13:23:38.227Z,19.60
2018-04-18T13:26:40.678Z,12.50
2018-04-18T13:29:43.898Z,13.47
2018-04-18T13:32:46.341Z,11.90
2018-04-18T13:35:48.797Z,15.57
2018-04-18T13:38:51.253Z,17.87
2018-04-18T13:41:53.702Z,12.47
2018-04-18T13:44:56.154Z,13.57
2018-04-18T13:47:59.377Z,11.27
2018-04-18T13:51:01.850Z,12.20
2018-04-18T13:54:04.297Z,10.83
2018-04-18T13:57:07.518Z,11.53
2018-04-18T14:00:09.966Z,9.50
2018-04-18T14:03:13.177Z,10.30
2018-04-18T14:06:15.626Z,26.70
2018-04-18T14:09:18.084Z,10.93
2018-04-18T14:12:20.529Z,10.50
2018-04-18T14:15:22.986Z,10.50
2018-04-18T14:18:25.437Z,11.17
2018-04-18T14:21:27.877Z,11.17
2018-04-18T14:24:30.326Z,9.87
2018-04-18T14:27:32.773Z,9.03
2018-04-18T14:30:54.118Z,7.00
2018-04-18T14:33:56.570Z,7.63
2018-04-18T14:36:59.786Z,7.83
2018-04-18T14:40:02.250Z,7.70
2018-04-18T14:43:05.469Z,8.03
2018-04-18T14:46:07.914Z,7.03
2018-04-18T14:49:11.132Z,8.77
2018-04-18T14:52:13.574Z,7.53
2018-04-18T14:55:16.021Z,6.73
2018-04-18T14:58:18.462Z,5.63
2018-04-18T15:01:20.918Z,5.83
2018-04-18T15:04:24.142Z,8.43
2018-04-18T15:07:26.586Z,6.67
2018-04-18T15:10:29.809Z,7.70
2018-04-18T15:13:32.261Z,12.83
2018-04-18T15:16:35.482Z,11.33
2018-04-18T15:19:37.925Z,5.80
2018-04-18T15:22:41.151Z,8.17
2018-04-18T15:25:43.600Z,8.40
2018-04-18T15:28:46.814Z,6.13
2018-04-18T15:31:49.525Z,7.10
2018-04-18T15:34:51.979Z,7.40
2018-04-18T15:37:54.426Z,7.27
2018-04-18T15:40:57.644Z,7.00
2018-04-18T15:44:13.223Z,7.40
2018-04-18T15:47:15.665Z,7.73
2018-04-18T15:50:18.123Z,5.93
2018-04-18T15:53:20.570Z,6.60
2018-04-18T15:56:23.022Z,8.50
2018-04-18T15:59:25.474Z,8.50
2018-04-18T16:02:27.918Z,6.03
2018-04-18T16:05:30.370Z,8.07
2018-04-18T16:08:32.815Z,5.87
2018-04-18T16:11:36.027Z,6.03
2018-04-18T16:14:38.478Z,5.63
2018-04-18T16:17:40.929Z,5.90
2018-04-18T16:20:43.377Z,8.77
2018-04-18T16:23:45.821Z,6.47
2018-04-18T16:26:49.041Z,8.70
2018-04-18T16:29:51.495Z,14.40
2018-04-18T16:32:53.937Z,10.27
2018-04-18T16:35:56.393Z,7.67
2018-04-18T16:38:58.847Z,7.57
2018-04-18T16:42:01.289Z,8.97
2018-04-18T16:45:04.502Z,12.93
2018-04-18T16:48:06.954Z,9.70
2018-04-18T16:51:09.401Z,8.63
2018-04-18T16:54:11.855Z,10.83
2018-04-18T16:57:14.341Z,10.47
2018-04-18T17:00:16.761Z,12.63
2018-04-18T17:03:19.207Z,9.97
2018-04-18T17:06:21.657Z,10.10
2018-04-18T17:09:24.114Z,12.03
2018-04-18T17:12:26.557Z,10.07
2018-04-18T17:15:29.005Z,11.87
2018-04-18T17:18:31.450Z,10.97
2018-04-18T17:21:33.940Z,9.43
2018-04-18T17:24:37.128Z,6.93
2018-04-18T17:27:39.565Z,8.33
2018-04-18T17:30:42.017Z,9.20
2018-04-18T17:33:44.474Z,28.20
2018-04-18T17:36:46.930Z,13.90
2018-04-18T17:39:49.386Z,11.03
2018-04-18T17:42:51.835Z,13.37
2018-04-18T17:45:54.289Z,13.70
2018-04-18T17:48:56.741Z,11.73
2018-04-18T17:51:59.189Z,13.13
2018-04-18T17:55:01.646Z,10.30
2018-04-18T17:58:04.093Z,11.60
2018-04-18T18:01:06.542Z,11.67
2018-04-18T18:04:08.989Z,11.87
2018-04-18T18:07:12.209Z,11.57
2018-04-18T18:10:14.670Z,10.23
2018-04-18T18:13:17.109Z,9.23
2018-04-18T18:16:20.321Z,9.93
2018-04-18T18:19:22.766Z,7.93
2018-04-18T18:22:25.217Z,11.60
2018-04-18T18:25:27.676Z,9.03
2018-04-18T18:28:30.114Z,9.30
2018-04-18T18:31:32.601Z,12.33
2018-04-18T18:34:35.027Z,11.63
2018-04-18T18:37:37.485Z,11.63
2018-04-18T18:40:39.933Z,11.30
2018-04-18T18:43:42.391Z,9.83
2018-04-18T18:46:44.842Z,10.53
2018-04-18T18:49:47.346Z,10.93
2018-04-18T18:52:49.749Z,9.07
2018-04-18T18:55:52.965Z,11.07
2018-04-18T18:58:55.413Z,11.10
2018-04-18T19:01:58.631Z,11.20
2018-04-18T19:05:01.090Z,12.20
2018-04-18T19:08:04.299Z,11.63
2018-04-18T19:11:06.753Z,13.37
2018-04-18T19:14:09.203Z,16.27
2018-04-18T19:17:11.662Z,16.13
2018-04-18T19:20:14.122Z,14.93
2018-04-18T19:23:16.578Z,19.60
2018-04-18T19:26:19.047Z,15.03
2018-04-18T19:29:22.259Z,15.30
2018-04-18T19:32:24.722Z,14.70
2018-04-18T19:35:27.947Z,14.10
2018-04-18T19:38:30.394Z,15.90
2018-04-18T19:41:33.626Z,13.97
2018-04-18T19:44:36.070Z,15.80
2018-04-18T19:47:38.568Z,17.80
2018-04-18T19:50:41.754Z,18.03
2018-04-18T19:53:44.203Z,15.50
2018-04-18T19:56:46.657Z,15.07
2018-04-18T19:59:49.105Z,16.00
2018-04-18T20:02:51.557Z,16.83
2018-04-18T20:05:54.017Z,15.40
2018-04-18T20:08:57.225Z,14.67
2018-04-18T20:11:59.685Z,15.53
2018-04-18T20:15:02.901Z,13.77
2018-04-18T20:18:05.357Z,16.67
2018-04-18T20:21:08.590Z,14.33
2018-04-18T20:24:11.042Z,15.83
2018-04-18T20:27:13.494Z,13.97
2018-04-18T20:30:16.706Z,14.93
2018-04-18T20:33:19.170Z,15.93
2018-04-18T20:36:22.396Z,17.10
2018-04-18T20:39:24.841Z,15.43
2018-04-18T20:42:27.297Z,15.33
2018-04-18T20:45:29.753Z,15.37
2018-04-18T20:48:32.222Z,16.50
2018-04-18T20:51:34.679Z,15.63
2018-04-18T20:54:37.129Z,17.80
2018-04-18T20:57:40.358Z,19.30
2018-04-18T21:00:42.811Z,17.83
2018-04-18T21:03:45.265Z,21.43
2018-04-18T21:06:48.490Z,16.83
2018-04-18T21:09:50.932Z,19.00
2018-04-18T21:12:54.162Z,17.80
2018-04-18T21:15:56.618Z,17.93
2018-04-18T21:18:59.846Z,20.10
2018-04-18T21:22:02.296Z,18.87
2018-04-18T21:25:04.754Z,20.67
2018-04-18T21:28:07.207Z,19.17
2018-04-18T21:31:09.663Z,19.03
2018-04-18T21:34:12.118Z,22.60
2018-04-18T21:37:14.573Z,23.93
2018-04-18T21:40:17.786Z,20.60
2018-04-18T21:43:20.274Z,18.77
2018-04-18T21:46:22.722Z,21.10
2018-04-18T21:49:25.180Z,22.87
2018-04-18T21:52:27.631Z,20.43
2018-04-18T21:55:30.077Z,21.53
2018-04-18T21:58:32.543Z,20.43
2018-04-18T22:01:34.991Z,23.63
2018-04-18T22:04:37.449Z,26.50
2018-04-18T22:07:40.672Z,21.73
2018-04-18T22:10:43.886Z,24.20
2018-04-18T22:13:46.345Z,24.47
2018-04-18T22:16:49.582Z,22.33
2018-04-18T22:19:52.021Z,22.53
2018-04-18T22:22:54.481Z,25.07
2018-04-18T22:25:57.705Z,23.37
2018-04-18T22:29:00.157Z,22.17
2018-04-18T22:32:03.377Z,21.83
2018-04-18T22:35:05.843Z,21.70
2018-04-18T22:38:08.298Z,21.97
2018-04-18T22:41:10.749Z,23.87
2018-04-18T22:44:13.201Z,24.67
2018-04-18T22:47:15.665Z,25.67
2018-04-18T22:50:18.131Z,26.13
2018-04-18T22:53:20.582Z,22.47
2018-04-18T22:56:23.798Z,24.83
2018-04-18T22:59:26.254Z,23.40
2018-04-18T23:02:29.469Z,23.93
2018-04-18T23:05:31.922Z,22.73
2018-04-18T23:08:35.146Z,24.23
2018-04-18T23:11:37.602Z,22.33
2018-04-18T23:14:40.059Z,22.83
2018-04-18T23:17:42.506Z,23.17
2018-04-18T23:20:44.962Z,22.47
2018-04-18T23:23:47.423Z,21.70
2018-04-18T23:26:49.878Z,22.17
2018-04-18T23:29:52.346Z,25.93
2018-04-18T23:32:54.805Z,24.07
2018-04-18T23:35:57.258Z,25.17
2018-04-18T23:38:59.715Z,27.83
2018-04-18T23:42:02.161Z,24.20
2018-04-18T23:45:05.385Z,24.73
2018-04-18T23:48:07.836Z,27.00
2018-04-18T23:51:11.062Z,27.60
2018-04-18T23:54:13.524Z,30.70
2018-04-18T23:57:15.987Z,28.10
